createdAt,value
2017-12-31T00:01:30.327Z,9.90
2017-12-31T00:03:58.314Z,10.47
2017-12-31T00:06:26.199Z,10.60
2017-12-31T00:08:57.790Z,9.10
2017-12-31T00:11:25.651Z,10.13
2017-12-31T00:13:53.566Z,10.80
2017-12-31T00:16:21.514Z,11.50
2017-12-31T00:18:49.499Z,9.53
2017-12-31T00:21:17.412Z,9.90
2017-12-31T00:23:48.233Z,8.87
2017-12-31T00:26:16.034Z,9.77
2017-12-31T00:28:43.940Z,10.00
2017-12-31T00:31:11.867Z,8.73
2017-12-31T00:33:42.031Z,8.93
2017-12-31T00:36:09.945Z,9.20
2017-12-31T00:38:37.792Z,8.83
2017-12-31T00:41:07.020Z,8.63
2017-12-31T00:43:34.835Z,9.77
2017-12-31T00:46:02.676Z,9.27
2017-12-31T00:48:30.565Z,9.77
2017-12-31T00:50:58.416Z,9.73
2017-12-31T00:53:26.220Z,8.87
2017-12-31T00:55:54.069Z,8.63
2017-12-31T00:58:21.921Z,9.50
2017-12-31T01:00:49.759Z,10.27
2017-12-31T01:03:17.622Z,10.37
2017-12-31T01:05:46.239Z,9.17
2017-12-31T01:08:14.057Z,9.87
2017-12-31T01:10:41.911Z,10.50
2017-12-31T01:13:09.800Z,10.50
2017-12-31T01:15:37.633Z,10.00
2017-12-31T01:18:05.501Z,9.50
2017-12-31T01:20:33.318Z,9.53
2017-12-31T01:23:01.136Z,10.50
2017-12-31T01:25:29.036Z,10.00
2017-12-31T01:27:56.885Z,10.13
2017-12-31T01:30:24.672Z,10.13
2017-12-31T01:32:52.554Z,10.00
2017-12-31T01:35:21.191Z,8.67
2017-12-31T01:37:49.040Z,8.97
2017-12-31T01:40:16.922Z,9.57
2017-12-31T01:42:44.769Z,9.70
2017-12-31T01:45:12.583Z,9.23
2017-12-31T01:47:40.401Z,10.40
2017-12-31T01:50:09.007Z,9.50
2017-12-31T01:52:36.892Z,9.90
2017-12-31T01:55:05.528Z,10.60
2017-12-31T01:57:33.405Z,9.63
2017-12-31T02:00:02.966Z,9.33
2017-12-31T02:02:30.746Z,8.80
2017-12-31T02:04:59.402Z,9.17
2017-12-31T02:07:27.286Z,9.07
2017-12-31T02:09:55.103Z,9.50
2017-12-31T02:12:22.957Z,10.17
2017-12-31T02:14:50.780Z,9.10
2017-12-31T02:17:18.647Z,10.37
2017-12-31T02:19:46.470Z,9.60
2017-12-31T02:22:14.269Z,9.27
2017-12-31T02:24:42.114Z,10.87
2017-12-31T02:27:09.909Z,10.50
2017-12-31T02:29:37.693Z,11.20
2017-12-31T02:32:05.516Z,11.13
2017-12-31T02:34:34.076Z,10.67
2017-12-31T02:37:02.413Z,10.23
2017-12-31T02:39:30.269Z,9.90
2017-12-31T02:41:58.114Z,9.83
2017-12-31T02:44:26.670Z,9.10
2017-12-31T02:46:54.774Z,10.50
2017-12-31T02:49:22.553Z,10.10
2017-12-31T02:51:50.413Z,10.10
2017-12-31T02:54:19.028Z,9.90
2017-12-31T02:56:46.869Z,10.67
2017-12-31T02:59:15.414Z,11.23
2017-12-31T03:01:43.202Z,9.73
2017-12-31T03:04:11.010Z,11.00
2017-12-31T03:06:38.825Z,8.87
2017-12-31T03:09:06.691Z,10.10
2017-12-31T03:11:34.507Z,9.70
2017-12-31T03:14:02.302Z,10.90
2017-12-31T03:16:30.190Z,10.50
2017-12-31T03:18:58.060Z,9.67
2017-12-31T03:21:25.924Z,10.73
2017-12-31T03:23:53.733Z,9.63
2017-12-31T03:26:21.598Z,9.90
2017-12-31T03:28:50.207Z,9.40
2017-12-31T03:31:18.057Z,8.60
2017-12-31T03:33:46.619Z,9.87
2017-12-31T03:36:14.447Z,8.50
2017-12-31T03:38:42.316Z,10.13
2017-12-31T03:41:10.233Z,9.57
2017-12-31T03:43:38.112Z,8.87
2017-12-31T03:46:06.717Z,9.40
2017-12-31T03:48:34.563Z,8.47
2017-12-31T03:51:03.120Z,8.73
2017-12-31T03:53:30.977Z,9.43
2017-12-31T03:55:58.901Z,9.63
2017-12-31T03:58:26.760Z,9.17
2017-12-31T04:00:54.553Z,8.57
2017-12-31T04:03:22.355Z,9.63
2017-12-31T04:05:50.670Z,9.33
2017-12-31T04:08:18.446Z,8.03
2017-12-31T04:10:46.239Z,9.00
2017-12-31T04:13:14.117Z,8.10
2017-12-31T04:15:42.015Z,8.00
2017-12-31T04:18:09.904Z,9.07
2017-12-31T04:20:37.744Z,8.50
2017-12-31T04:23:05.610Z,8.77
2017-12-31T04:25:33.447Z,8.77
2017-12-31T04:28:01.231Z,8.10
2017-12-31T04:30:29.011Z,7.93
2017-12-31T04:32:56.873Z,9.30
2017-12-31T04:35:24.706Z,8.03
2017-12-31T04:37:52.563Z,8.50
2017-12-31T04:40:20.408Z,8.63
2017-12-31T04:42:48.306Z,8.47
2017-12-31T04:45:16.135Z,8.43
2017-12-31T04:47:44.044Z,8.70
2017-12-31T04:50:12.687Z,7.90
2017-12-31T04:52:40.565Z,8.03
2017-12-31T04:55:08.376Z,7.63
2017-12-31T04:57:36.212Z,9.03
2017-12-31T05:00:04.131Z,8.77
2017-12-31T05:02:32.492Z,8.90
2017-12-31T05:05:00.344Z,9.30
2017-12-31T05:07:28.128Z,8.20
2017-12-31T05:09:56.096Z,8.40
2017-12-31T05:12:24.643Z,9.10
2017-12-31T05:14:52.488Z,10.43
2017-12-31T05:17:20.302Z,8.60
2017-12-31T05:19:48.127Z,8.10
2017-12-31T05:22:15.994Z,8.60
2017-12-31T05:24:43.842Z,7.93
2017-12-31T05:27:11.628Z,8.23
2017-12-31T05:29:39.423Z,8.10
2017-12-31T05:32:07.295Z,8.20
2017-12-31T05:34:35.181Z,8.07
2017-12-31T05:37:03.053Z,7.63
2017-12-31T05:39:31.690Z,8.83
2017-12-31T05:41:59.547Z,8.53
2017-12-31T05:44:27.348Z,8.40
2017-12-31T05:46:55.223Z,7.47
2017-12-31T05:49:23.095Z,8.20
2017-12-31T05:51:50.880Z,8.23
2017-12-31T05:54:19.493Z,7.73
2017-12-31T05:56:47.390Z,7.90
2017-12-31T05:59:15.227Z,8.70
2017-12-31T06:01:43.075Z,7.13
2017-12-31T06:04:10.868Z,8.27
2017-12-31T06:06:38.714Z,8.83
2017-12-31T06:09:07.344Z,8.97
2017-12-31T06:11:35.122Z,8.53
2017-12-31T06:14:02.981Z,8.67
2017-12-31T06:16:30.811Z,8.37
2017-12-31T06:18:58.677Z,9.03
2017-12-31T06:21:26.504Z,9.50
2017-12-31T06:23:54.310Z,8.27
2017-12-31T06:26:22.856Z,9.93
2017-12-31T06:28:50.706Z,8.97
2017-12-31T06:31:18.574Z,8.47
2017-12-31T06:33:46.461Z,8.07
2017-12-31T06:36:14.222Z,8.53
2017-12-31T06:38:42.057Z,9.10
2017-12-31T06:41:09.853Z,8.33
2017-12-31T06:43:37.707Z,8.60
2017-12-31T06:46:05.487Z,8.37
2017-12-31T06:48:33.265Z,8.40
2017-12-31T06:51:01.118Z,8.10
2017-12-31T06:53:28.969Z,8.10
2017-12-31T06:55:57.340Z,8.93
2017-12-31T06:58:25.137Z,7.90
2017-12-31T07:00:52.930Z,8.30
2017-12-31T07:03:20.742Z,8.97
2017-12-31T07:05:48.540Z,11.20
2017-12-31T07:08:16.402Z,12.20
2017-12-31T07:10:45.108Z,10.20
2017-12-31T07:13:12.965Z,8.93
2017-12-31T07:15:40.826Z,9.83
2017-12-31T07:18:08.661Z,12.10
2017-12-31T07:20:36.427Z,10.07
2017-12-31T07:23:04.291Z,8.70
2017-12-31T07:25:32.162Z,9.07
2017-12-31T07:28:00.910Z,9.13
2017-12-31T07:30:28.710Z,7.50
2017-12-31T07:32:56.512Z,8.80
2017-12-31T07:35:24.415Z,7.83
2017-12-31T07:37:52.282Z,8.77
2017-12-31T07:40:20.109Z,9.20
2017-12-31T07:42:47.963Z,8.97
2017-12-31T07:45:15.754Z,7.80
2017-12-31T07:47:43.542Z,8.57
2017-12-31T07:50:11.433Z,8.07
2017-12-31T07:52:39.200Z,9.13
2017-12-31T07:55:06.998Z,9.57
2017-12-31T07:57:35.618Z,13.83
2017-12-31T08:00:03.454Z,12.93
2017-12-31T08:02:31.262Z,10.13
2017-12-31T08:04:59.781Z,9.23
2017-12-31T08:07:27.642Z,9.23
2017-12-31T08:09:55.540Z,9.00
2017-12-31T08:12:23.337Z,10.80
2017-12-31T08:14:51.199Z,11.50
2017-12-31T08:17:19.098Z,9.90
2017-12-31T08:19:46.883Z,10.07
2017-12-31T08:22:14.714Z,8.93
2017-12-31T08:24:42.580Z,9.50
2017-12-31T08:27:10.619Z,9.93
2017-12-31T08:29:38.490Z,9.40
2017-12-31T08:32:06.369Z,10.23
2017-12-31T08:34:34.188Z,10.47
2017-12-31T08:37:01.992Z,9.90
2017-12-31T08:39:30.579Z,9.07
2017-12-31T08:41:59.207Z,9.07
2017-12-31T08:44:27.076Z,9.33
2017-12-31T08:46:54.886Z,10.33
2017-12-31T08:49:22.712Z,8.87
2017-12-31T08:51:50.534Z,9.93
2017-12-31T08:54:19.145Z,9.90
2017-12-31T08:59:25.182Z,10.27
2017-12-31T09:01:53.829Z,10.57
2017-12-31T09:04:31.889Z,9.70
2017-12-31T09:09:33.792Z,10.67
2017-12-31T09:12:03.449Z,9.53
2017-12-31T09:14:32.636Z,10.43
2017-12-31T09:17:00.498Z,11.27
2017-12-31T09:19:28.354Z,11.07
2017-12-31T09:21:56.267Z,9.97
2017-12-31T09:24:24.067Z,10.83
2017-12-31T09:26:51.873Z,9.63
2017-12-31T09:29:19.684Z,13.00
2017-12-31T09:31:48.045Z,10.20
2017-12-31T09:34:15.865Z,10.93
2017-12-31T09:36:43.682Z,11.10
2017-12-31T09:39:11.537Z,10.30
2017-12-31T09:41:40.196Z,10.07
2017-12-31T09:44:08.040Z,10.63
2017-12-31T09:46:35.843Z,10.53
2017-12-31T09:49:03.638Z,11.17
2017-12-31T09:51:32.315Z,9.73
2017-12-31T09:54:00.114Z,10.67
2017-12-31T09:56:27.914Z,11.33
2017-12-31T09:58:56.549Z,11.30
2017-12-31T10:01:24.393Z,10.30
2017-12-31T10:03:52.175Z,11.80
2017-12-31T10:06:19.956Z,10.13
2017-12-31T10:08:55.372Z,11.90
2017-12-31T10:11:24.011Z,10.93
2017-12-31T10:13:51.804Z,11.90
2017-12-31T10:16:19.649Z,12.70
2017-12-31T10:18:47.405Z,13.10
2017-12-31T10:21:15.209Z,12.77
2017-12-31T10:23:43.029Z,12.30
2017-12-31T10:26:10.855Z,13.37
2017-12-31T10:28:38.683Z,11.97
2017-12-31T10:31:06.482Z,13.53
2017-12-31T10:33:35.114Z,13.53
2017-12-31T10:36:03.673Z,14.13
2017-12-31T10:38:32.635Z,12.60
2017-12-31T10:41:01.260Z,12.87
2017-12-31T10:43:29.129Z,13.70
2017-12-31T10:45:56.896Z,14.20
2017-12-31T10:48:24.736Z,12.83
2017-12-31T10:50:52.507Z,12.40
2017-12-31T10:53:20.325Z,13.63
2017-12-31T10:55:48.190Z,13.60
2017-12-31T10:58:16.028Z,14.83
2017-12-31T11:00:44.310Z,13.20
2017-12-31T11:03:12.180Z,14.60
2017-12-31T11:05:40.739Z,14.20
2017-12-31T11:08:08.629Z,15.33
2017-12-31T11:10:36.441Z,13.23
2017-12-31T11:13:04.820Z,13.83
2017-12-31T11:15:32.632Z,13.53
2017-12-31T11:18:00.376Z,12.93
2017-12-31T11:20:28.233Z,15.40
2017-12-31T11:22:56.045Z,13.00
2017-12-31T11:25:23.923Z,13.27
2017-12-31T11:27:52.685Z,15.43
2017-12-31T11:30:20.525Z,14.17
2017-12-31T11:32:48.395Z,14.03
2017-12-31T11:35:16.204Z,14.27
2017-12-31T11:37:43.969Z,13.50
2017-12-31T11:40:11.794Z,13.27
2017-12-31T11:42:39.641Z,14.27
2017-12-31T11:45:07.520Z,13.60
2017-12-31T11:47:35.308Z,13.63
2017-12-31T11:50:03.871Z,13.90
2017-12-31T11:52:31.658Z,13.27
2017-12-31T11:55:00.470Z,14.00
2017-12-31T11:57:29.128Z,14.07
2017-12-31T11:59:56.979Z,13.40
2017-12-31T12:02:25.547Z,13.40
2017-12-31T12:04:53.417Z,13.97
2017-12-31T12:07:23.130Z,13.90
2017-12-31T12:09:55.046Z,12.83
2017-12-31T12:12:23.648Z,13.67
2017-12-31T12:14:51.446Z,14.70
2017-12-31T12:17:21.453Z,14.53
2017-12-31T12:19:49.406Z,14.63
2017-12-31T12:22:18.160Z,14.80
2017-12-31T12:24:46.048Z,13.40
2017-12-31T12:27:13.856Z,13.77
2017-12-31T12:29:41.693Z,15.67
2017-12-31T12:32:09.630Z,14.67
2017-12-31T12:34:37.467Z,14.90
2017-12-31T12:37:05.317Z,15.93
2017-12-31T12:39:33.222Z,14.33
2017-12-31T12:42:01.087Z,13.23
2017-12-31T12:44:28.968Z,13.33
2017-12-31T12:46:56.736Z,15.33
2017-12-31T12:49:24.502Z,14.40
2017-12-31T12:51:52.402Z,15.20
2017-12-31T12:54:20.981Z,14.90
2017-12-31T12:56:49.642Z,14.83
2017-12-31T12:59:17.464Z,16.40
2017-12-31T13:01:45.357Z,14.63
2017-12-31T13:04:13.172Z,14.83
2017-12-31T13:06:41.059Z,15.67
2017-12-31T13:09:08.924Z,16.10
2017-12-31T13:11:36.817Z,17.00
2017-12-31T13:14:04.662Z,14.53
2017-12-31T13:16:33.230Z,14.63
2017-12-31T13:19:01.044Z,15.57
2017-12-31T13:21:28.909Z,14.30
2017-12-31T13:23:56.701Z,16.60
2017-12-31T13:26:24.491Z,14.93
2017-12-31T13:28:52.272Z,16.10
2017-12-31T13:31:20.579Z,17.00
2017-12-31T13:33:48.392Z,14.30
2017-12-31T13:36:16.246Z,16.10
2017-12-31T13:38:44.078Z,15.73
2017-12-31T13:41:11.908Z,15.43
2017-12-31T13:43:39.670Z,14.20
2017-12-31T13:46:07.514Z,17.27
2017-12-31T13:48:35.330Z,14.97
2017-12-31T13:51:03.262Z,16.50
2017-12-31T13:53:31.150Z,15.80
2017-12-31T13:55:58.959Z,16.53
2017-12-31T13:58:27.932Z,18.70
2017-12-31T14:00:56.540Z,17.17
2017-12-31T14:03:24.388Z,15.80
2017-12-31T14:05:52.262Z,15.73
2017-12-31T14:08:28.120Z,16.57
2017-12-31T14:10:56.689Z,17.50
2017-12-31T14:13:24.517Z,17.50
2017-12-31T14:15:52.419Z,16.40
2017-12-31T14:18:20.209Z,16.03
2017-12-31T14:20:48.080Z,15.60
2017-12-31T14:23:15.837Z,16.80
2017-12-31T14:25:43.737Z,16.13
2017-12-31T14:28:11.540Z,16.63
2017-12-31T14:30:39.338Z,18.20
2017-12-31T14:33:07.157Z,17.33
2017-12-31T14:35:35.075Z,17.23
2017-12-31T14:38:03.781Z,17.30
2017-12-31T14:40:31.579Z,17.90
2017-12-31T14:42:59.414Z,15.93
2017-12-31T14:45:28.042Z,17.10
2017-12-31T14:47:55.862Z,16.60
2017-12-31T14:50:23.711Z,16.50
2017-12-31T14:52:51.494Z,15.10
2017-12-31T14:55:19.311Z,18.87
2017-12-31T14:57:47.209Z,16.93
2017-12-31T15:00:15.084Z,16.33
2017-12-31T15:02:42.908Z,22.27
2017-12-31T15:05:10.729Z,16.70
2017-12-31T15:07:38.560Z,18.40
2017-12-31T15:10:06.440Z,16.60
2017-12-31T15:12:34.263Z,18.40
2017-12-31T15:15:02.114Z,17.33
2017-12-31T15:17:30.702Z,17.93
2017-12-31T15:19:58.554Z,16.43
2017-12-31T15:22:26.349Z,16.67
2017-12-31T15:24:54.169Z,16.60
2017-12-31T15:27:22.051Z,18.40
2017-12-31T15:29:49.967Z,17.70
2017-12-31T15:32:17.797Z,18.23
2017-12-31T15:34:45.646Z,16.40
2017-12-31T15:37:13.527Z,19.30
2017-12-31T15:39:41.393Z,17.40
2017-12-31T15:42:09.224Z,17.70
2017-12-31T15:44:37.058Z,17.70
2017-12-31T15:47:10.127Z,16.70
2017-12-31T15:49:39.956Z,18.00
2017-12-31T15:52:21.814Z,17.00
2017-12-31T15:54:49.656Z,16.97
2017-12-31T15:57:18.245Z,18.97
2017-12-31T15:59:46.013Z,17.13
2017-12-31T16:02:20.533Z,18.17
2017-12-31T16:04:51.762Z,17.20
2017-12-31T16:07:19.716Z,19.53
2017-12-31T16:09:48.358Z,19.00
2017-12-31T16:12:16.253Z,17.23
2017-12-31T16:14:44.055Z,17.30
2017-12-31T16:17:11.920Z,18.17
2017-12-31T16:19:40.553Z,19.90
2017-12-31T16:22:08.434Z,18.23
2017-12-31T16:24:36.342Z,18.03
2017-12-31T16:27:04.213Z,18.87
2017-12-31T16:29:32.889Z,17.30
2017-12-31T16:32:01.465Z,16.63
2017-12-31T16:34:29.305Z,17.93
2017-12-31T16:36:57.219Z,17.40
2017-12-31T16:39:25.056Z,17.80
2017-12-31T16:41:52.839Z,16.63
2017-12-31T16:44:20.674Z,20.00
2017-12-31T16:46:48.565Z,17.93
2017-12-31T16:49:16.384Z,17.07
2017-12-31T16:51:44.268Z,16.97
2017-12-31T16:54:12.175Z,19.97
2017-12-31T16:56:40.038Z,18.33
2017-12-31T16:59:07.986Z,19.40
2017-12-31T17:01:36.035Z,19.63
2017-12-31T17:04:03.923Z,17.57
2017-12-31T17:06:31.782Z,19.20
2017-12-31T17:08:59.850Z,19.07
2017-12-31T17:11:27.765Z,19.63
2017-12-31T17:13:55.632Z,19.07
2017-12-31T17:16:23.547Z,18.00
2017-12-31T17:18:51.443Z,23.10
2017-12-31T17:21:19.266Z,20.67
2017-12-31T17:23:47.867Z,19.60
2017-12-31T17:26:15.760Z,17.33
2017-12-31T17:28:43.635Z,20.40
2017-12-31T17:31:11.590Z,19.07
2017-12-31T17:33:39.516Z,21.20
2017-12-31T17:36:07.348Z,19.87
2017-12-31T17:38:35.228Z,19.20
2017-12-31T17:41:03.056Z,21.10
2017-12-31T17:43:31.013Z,21.13
2017-12-31T17:45:58.931Z,18.13
2017-12-31T17:48:26.953Z,18.97
2017-12-31T17:50:55.589Z,18.60
2017-12-31T17:53:23.454Z,18.30
2017-12-31T17:55:51.296Z,18.43
2017-12-31T17:58:19.185Z,18.60
2017-12-31T18:00:47.054Z,19.47
2017-12-31T18:03:14.939Z,20.40
2017-12-31T18:05:43.514Z,20.53
2017-12-31T18:08:11.273Z,19.60
2017-12-31T18:10:39.045Z,21.17
2017-12-31T18:13:06.884Z,20.43
2017-12-31T18:15:34.691Z,19.40
2017-12-31T18:18:02.493Z,20.20
2017-12-31T18:20:30.332Z,21.57
2017-12-31T18:22:58.088Z,20.53
2017-12-31T18:25:25.909Z,20.60
2017-12-31T18:27:54.516Z,21.63
2017-12-31T18:30:22.327Z,21.70
2017-12-31T18:32:50.131Z,19.80
2017-12-31T18:35:18.654Z,21.33
2017-12-31T18:37:46.432Z,20.57
2017-12-31T18:40:14.208Z,22.23
2017-12-31T18:42:42.008Z,20.93
2017-12-31T18:45:09.750Z,20.10
2017-12-31T18:47:37.573Z,19.13
2017-12-31T18:50:05.337Z,18.80
2017-12-31T18:52:33.170Z,19.20
2017-12-31T18:55:00.940Z,20.27
2017-12-31T18:57:28.776Z,20.30
2017-12-31T18:59:56.554Z,20.10
2017-12-31T19:02:24.373Z,20.23
2017-12-31T19:04:52.203Z,21.90
2017-12-31T19:07:19.944Z,23.00
2017-12-31T19:09:48.462Z,21.20
2017-12-31T19:12:16.228Z,24.03
2017-12-31T19:14:43.998Z,23.93
2017-12-31T19:17:12.608Z,25.73
2017-12-31T19:19:40.354Z,25.70
2017-12-31T19:22:08.167Z,23.20
2017-12-31T19:24:35.930Z,21.93
2017-12-31T19:27:03.790Z,26.57
2017-12-31T19:29:31.618Z,25.90
2017-12-31T19:31:59.428Z,23.67
2017-12-31T19:34:27.249Z,26.33
2017-12-31T19:36:55.074Z,25.13
2017-12-31T19:39:23.665Z,26.03
2017-12-31T19:41:51.423Z,26.43
2017-12-31T19:44:19.181Z,28.27
2017-12-31T19:46:46.998Z,27.07
2017-12-31T19:49:14.811Z,25.80
2017-12-31T19:51:42.619Z,28.30
2017-12-31T19:54:10.489Z,29.20
2017-12-31T19:56:38.375Z,28.37
2017-12-31T19:59:06.214Z,29.93
2017-12-31T20:01:33.984Z,27.77
2017-12-31T20:04:01.743Z,28.63
2017-12-31T20:06:29.570Z,26.10
2017-12-31T20:08:58.092Z,27.37
2017-12-31T20:11:25.901Z,28.80
2017-12-31T20:13:53.683Z,28.23
2017-12-31T20:16:21.432Z,29.33
2017-12-31T20:18:49.392Z,29.17
2017-12-31T20:21:17.155Z,26.63
2017-12-31T20:23:45.012Z,28.83
2017-12-31T20:26:12.862Z,29.17
2017-12-31T20:28:40.770Z,28.07
2017-12-31T20:31:08.598Z,27.63
2017-12-31T20:33:36.396Z,27.20
2017-12-31T20:36:04.288Z,29.43
2017-12-31T20:38:32.873Z,31.10
2017-12-31T20:41:00.691Z,28.60
2017-12-31T20:43:28.541Z,29.57
2017-12-31T20:45:56.369Z,29.37
2017-12-31T20:48:24.283Z,29.30
2017-12-31T20:50:52.069Z,29.03
2017-12-31T20:53:20.062Z,27.37
2017-12-31T20:55:47.983Z,29.67
2017-12-31T20:58:15.967Z,27.97
2017-12-31T21:00:43.912Z,29.20
2017-12-31T21:03:11.828Z,28.90
2017-12-31T21:05:39.755Z,27.87
2017-12-31T21:08:07.771Z,29.33
2017-12-31T21:10:35.845Z,28.70
2017-12-31T21:13:03.779Z,28.73
2017-12-31T21:15:31.666Z,29.30
2017-12-31T21:17:59.629Z,29.87
2017-12-31T21:20:27.504Z,29.63
2017-12-31T21:22:55.378Z,28.00
2017-12-31T21:25:23.319Z,28.73
2017-12-31T21:27:51.239Z,28.87
2017-12-31T21:30:19.169Z,27.93
2017-12-31T21:32:47.098Z,29.97
2017-12-31T21:35:15.146Z,28.80
2017-12-31T21:37:43.160Z,28.17
2017-12-31T21:40:11.099Z,30.13
2017-12-31T21:42:39.150Z,28.57
2017-12-31T21:45:07.579Z,27.87
2017-12-31T21:47:36.319Z,29.17
2017-12-31T21:50:04.238Z,26.03
2017-12-31T21:52:32.172Z,28.57
2017-12-31T21:55:00.113Z,27.90
2017-12-31T21:57:28.043Z,29.10
2017-12-31T21:59:57.042Z,28.53
2017-12-31T22:02:25.008Z,27.53
2017-12-31T22:04:53.025Z,28.10
2017-12-31T22:07:20.977Z,28.13
2017-12-31T22:09:48.979Z,29.70
2017-12-31T22:12:17.453Z,27.70
2017-12-31T22:14:45.357Z,28.63
2017-12-31T22:17:13.347Z,28.03
2017-12-31T22:19:41.178Z,28.27
2017-12-31T22:22:10.003Z,30.23
2017-12-31T22:24:37.910Z,29.03
2017-12-31T22:27:05.863Z,28.67
2017-12-31T22:29:34.589Z,28.40
2017-12-31T22:32:02.534Z,29.80
2017-12-31T22:34:31.219Z,28.20
2017-12-31T22:36:59.333Z,30.30
2017-12-31T22:39:27.269Z,29.87
2017-12-31T22:41:55.087Z,29.83
2017-12-31T22:44:23.009Z,28.47
2017-12-31T22:46:50.948Z,29.97
2017-12-31T22:49:19.000Z,29.17
2017-12-31T22:51:47.013Z,30.37
2017-12-31T22:54:15.046Z,31.13
2017-12-31T22:56:43.832Z,33.57
2017-12-31T22:59:11.892Z,30.83
2017-12-31T23:01:39.881Z,39.47
2017-12-31T23:04:07.802Z,65.87
2017-12-31T23:06:35.903Z,109.07
2017-12-31T23:09:04.405Z,73.97
2017-12-31T23:11:32.242Z,46.27
2017-12-31T23:14:00.816Z,46.80
2017-12-31T23:16:28.764Z,40.77
2017-12-31T23:18:56.729Z,34.87
2017-12-31T23:21:24.646Z,36.03
2017-12-31T23:23:52.707Z,40.23
2017-12-31T23:26:20.636Z,37.07
2017-12-31T23:28:48.464Z,44.67
2017-12-31T23:31:16.843Z,65.90
2017-12-31T23:33:44.641Z,33.67
2017-12-31T23:36:12.573Z,44.70
2017-12-31T23:38:40.478Z,33.10
2017-12-31T23:41:08.340Z,31.10
2017-12-31T23:43:36.205Z,33.17
2017-12-31T23:46:04.063Z,29.33
2017-12-31T23:48:31.839Z,32.10
2017-12-31T23:50:59.736Z,32.27
2017-12-31T23:53:27.522Z,34.50
2017-12-31T23:55:56.129Z,35.37
2017-12-31T23:58:24.709Z,35.73
